createdAt,value
2017-04-11T00:00:11.774Z,72.74
2017-04-11T00:01:11.796Z,72.92
2017-04-11T00:02:11.816Z,72.55
2017-04-11T00:03:11.834Z,72.83
2017-04-11T00:05:11.877Z,72.83
2017-04-11T00:06:11.897Z,72.74
2017-04-11T00:07:11.915Z,72.64
2017-04-11T00:08:26.551Z,72.64
2017-04-11T00:09:11.955Z,72.55
2017-04-11T00:10:11.976Z,72.74
2017-04-11T00:11:11.995Z,72.55
2017-04-11T00:12:12.420Z,72.74
2017-04-11T00:13:12.035Z,72.55
2017-04-11T00:14:12.116Z,71.97
2017-04-11T00:15:12.076Z,72.26
2017-04-11T00:16:12.097Z,72.45
2017-04-11T00:17:12.119Z,71.88
2017-04-11T00:18:11.833Z,72.35
2017-04-11T00:20:12.179Z,72.35
2017-04-11T00:21:12.199Z,72.64
2017-04-11T00:22:12.219Z,72.35
2017-04-11T00:23:26.858Z,72.35
2017-04-11T00:24:12.263Z,72.74
2017-04-11T00:25:12.280Z,72.74
2017-04-11T00:26:11.996Z,72.74
2017-04-11T00:27:12.319Z,72.45
2017-04-11T00:28:12.340Z,72.74
2017-04-11T00:29:12.358Z,72.55
2017-04-11T00:30:12.380Z,72.74
2017-04-11T00:31:12.402Z,72.92
2017-04-11T00:32:12.420Z,73.4
2017-04-11T00:33:12.440Z,73.21
2017-04-11T00:37:12.524Z,73.65
2017-04-11T00:38:12.543Z,74.22
2017-04-11T00:39:12.561Z,74.79
2017-04-11T00:40:12.600Z,74.69
2017-04-11T00:41:12.300Z,74.6
2017-04-11T00:42:12.623Z,74.22
2017-04-11T00:43:12.639Z,74.41
2017-04-11T00:44:12.661Z,75.07
2017-04-11T00:45:12.680Z,74.88
2017-04-11T00:46:12.701Z,75.36
2017-04-11T00:47:12.721Z,75.36
2017-04-11T00:48:12.742Z,75.45
2017-04-11T00:49:12.459Z,75.84
2017-04-11T00:50:12.782Z,76.12
2017-04-11T00:51:12.802Z,76.21
2017-04-11T00:52:12.823Z,76.21
2017-04-11T00:53:12.840Z,76.21
2017-04-11T00:54:12.861Z,76.21
2017-04-11T00:55:27.496Z,76.4
2017-04-11T00:56:12.901Z,76.4
2017-04-11T00:57:12.920Z,77.07
2017-04-11T00:58:12.940Z,76.88
2017-04-11T00:59:12.959Z,76.88
2017-04-11T01:00:12.982Z,76.5
2017-04-11T01:01:13.001Z,76.69
2017-04-11T01:02:13.020Z,76.31
2017-04-11T01:03:13.039Z,76.12
2017-04-11T01:04:12.757Z,76.4
2017-04-11T01:05:13.079Z,75.93
2017-04-11T01:06:13.099Z,76.12
2017-04-11T01:08:13.141Z,76.12
2017-04-11T01:10:13.182Z,76.03
2017-04-11T01:11:27.814Z,76.03
2017-04-11T01:12:13.219Z,76.4
2017-04-11T01:13:13.236Z,76.21
2017-04-11T01:14:13.257Z,76.12
2017-04-11T01:15:13.278Z,75.84
2017-04-11T01:16:13.297Z,76.31
2017-04-11T01:17:13.014Z,76.59
2017-04-11T01:18:13.337Z,76.97
2017-04-11T01:19:13.358Z,76.88
2017-04-11T01:20:13.376Z,76.59
2017-04-11T01:21:13.397Z,77.17
2017-04-11T01:22:13.417Z,77.07
2017-04-11T01:24:13.455Z,77.55
2017-04-11T01:25:13.476Z,77.17
2017-04-11T01:26:13.496Z,77.6
2017-04-11T01:27:28.132Z,77.92
2017-04-11T01:28:13.537Z,77.7
2017-04-11T01:29:13.556Z,78.17
2017-04-11T01:30:13.576Z,77.89
2017-04-11T01:31:13.601Z,78.17
2017-04-11T01:32:13.615Z,78.08
2017-04-11T01:33:13.639Z,78.17
2017-04-11T01:34:13.656Z,79.03
2017-04-11T01:35:13.675Z,79.16
2017-04-11T01:36:13.695Z,78.83
2017-04-11T01:37:13.714Z,79.12
2017-04-11T01:38:13.733Z,79.31
2017-04-11T01:39:13.755Z,79.22
2017-04-11T01:40:13.773Z,79.22
2017-04-11T01:41:13.792Z,78.83
2017-04-11T01:42:13.813Z,79.22
2017-04-11T01:43:28.448Z,79.6
2017-04-11T01:44:13.851Z,79.41
2017-04-11T01:45:13.873Z,79.69
2017-04-11T01:46:13.891Z,79.69
2017-04-11T01:47:13.607Z,79.6
2017-04-11T01:48:13.933Z,79.97
2017-04-11T01:49:13.951Z,79.88
2017-04-11T01:50:13.970Z,80.07
2017-04-11T01:51:13.991Z,80.07
2017-04-11T01:52:14.010Z,80.55
2017-04-11T01:53:14.029Z,80.16
2017-04-11T01:54:14.048Z,81.12
2017-04-11T01:55:14.074Z,80.83
2017-04-11T01:56:14.088Z,80.64
2017-04-11T01:57:14.109Z,80.55
2017-04-11T01:58:28.745Z,81.21
2017-04-11T01:59:14.148Z,80.83
2017-04-11T02:01:14.186Z,81.49
2017-04-11T02:02:14.209Z,81.3
2017-04-11T02:03:14.227Z,81.49
2017-04-11T02:04:14.245Z,82.16
2017-04-11T02:05:14.264Z,82.07
2017-04-11T02:06:14.284Z,82.07
2017-04-11T02:07:14.303Z,81.65
2017-04-11T02:08:14.330Z,82.35
2017-04-11T02:09:14.349Z,82.73
2017-04-11T02:10:14.366Z,82.59
2017-04-11T02:11:14.383Z,83.49
2017-04-11T02:12:14.401Z,83.54
2017-04-11T02:13:14.424Z,83.36
2017-04-11T02:14:14.441Z,83.01
2017-04-11T02:15:14.659Z,82.92
2017-04-11T02:16:14.479Z,83.01
2017-04-11T02:17:14.499Z,82.92
2017-04-11T02:18:14.672Z,82.64
2017-04-11T02:19:14.537Z,82.73
2017-04-11T02:20:14.558Z,82.92
2017-04-11T02:21:14.677Z,82.73
2017-04-11T02:22:14.597Z,82.92
2017-04-11T02:23:14.617Z,82.73
2017-04-11T02:24:14.635Z,82.82
2017-04-11T02:25:14.655Z,82.45
2017-04-11T02:26:14.673Z,82.82
2017-04-11T02:27:14.694Z,82.54
2017-04-11T02:28:14.714Z,82.82
2017-04-11T02:29:14.733Z,82.73
2017-04-11T02:30:29.368Z,82.82
2017-04-11T02:31:14.772Z,82.92
2017-04-11T02:32:14.792Z,83.01
2017-04-11T02:33:14.810Z,82.73
2017-04-11T02:34:14.829Z,83.11
2017-04-11T02:35:14.855Z,83.07
2017-04-11T02:36:14.870Z,82.69
2017-04-11T02:37:14.887Z,82.88
2017-04-11T02:38:14.907Z,83.16
2017-04-11T02:39:14.927Z,83.07
2017-04-11T02:40:14.946Z,82.78
2017-04-11T02:41:14.965Z,83.45
2017-04-11T02:42:14.986Z,83.16
2017-04-11T02:45:15.043Z,83.45
2017-04-11T02:46:29.679Z,83.92
2017-04-11T02:47:15.083Z,83.45
2017-04-11T02:48:15.112Z,83.73
2017-04-11T02:49:15.121Z,84.11
2017-04-11T02:50:15.139Z,84.21
2017-04-11T02:51:15.162Z,84.78
2017-04-11T02:52:15.277Z,84.4
2017-04-11T02:53:15.198Z,84.87
2017-04-11T02:54:15.217Z,84.59
2017-04-11T02:55:15.236Z,84.78
2017-04-11T02:56:15.254Z,84.4
2017-04-11T02:57:15.274Z,84.21
2017-04-11T02:58:15.293Z,84.16
2017-04-11T02:59:15.314Z,83.59
2017-04-11T03:00:15.374Z,84.06
2017-04-11T03:01:15.357Z,84.06
2017-04-11T03:02:29.987Z,83.68
2017-04-11T03:03:15.391Z,83.68
2017-04-11T03:04:15.411Z,83.68
2017-04-11T03:05:15.432Z,83.78
2017-04-11T03:06:15.453Z,83.78
2017-04-11T03:07:15.467Z,83.49
2017-04-11T03:08:15.487Z,83.87
2017-04-11T03:09:15.507Z,83.59
2017-04-11T03:10:15.526Z,83.68
2017-04-11T03:11:15.545Z,83.78
2017-04-11T03:12:15.571Z,83.01
2017-04-11T03:13:15.583Z,83.01
2017-04-11T03:14:15.603Z,82.73
2017-04-11T03:15:15.622Z,82.92
2017-04-11T03:16:15.644Z,83.01
2017-04-11T03:17:15.660Z,82.82
2017-04-11T03:18:30.298Z,83.2
2017-04-11T03:19:15.700Z,83.11
2017-04-11T03:20:15.718Z,83.11
2017-04-11T03:21:15.738Z,82.92
2017-04-11T03:22:15.758Z,83.39
2017-04-11T03:23:15.779Z,82.54
2017-04-11T03:24:15.798Z,83.01
2017-04-11T03:25:15.816Z,82.64
2017-04-11T03:26:15.835Z,82.64
2017-04-11T03:27:15.855Z,82.45
2017-04-11T03:28:15.873Z,82.35
2017-04-11T03:29:15.894Z,81.87
2017-04-11T03:32:15.951Z,82.26
2017-04-11T03:33:30.588Z,81.97
2017-04-11T03:34:15.990Z,82.16
2017-04-11T03:35:16.010Z,82.16
2017-04-11T03:36:16.029Z,82.45
2017-04-11T03:37:16.049Z,82.54
2017-04-11T03:38:16.069Z,82.73
2017-04-11T03:39:16.091Z,82.88
2017-04-11T03:40:16.109Z,83.26
2017-04-11T03:41:16.130Z,82.5
2017-04-11T03:42:16.145Z,82.78
2017-04-11T03:44:16.185Z,83.36
2017-04-11T03:45:16.207Z,83.54
2017-04-11T03:47:16.241Z,83.45
2017-04-11T03:48:16.262Z,83.36
2017-04-11T03:49:16.282Z,83.73
2017-04-11T03:50:16.300Z,84.21
2017-04-11T03:51:16.320Z,84.01
2017-04-11T03:52:16.338Z,83.92
2017-04-11T03:53:16.357Z,84.21
2017-04-11T03:54:16.376Z,84.3
2017-04-11T03:55:16.395Z,84.49
2017-04-11T03:56:16.113Z,84.11
2017-04-11T03:57:16.433Z,84.11
2017-04-11T03:58:16.455Z,84.4
2017-04-11T03:59:16.168Z,84.11
2017-04-11T04:00:16.492Z,84.59
2017-04-11T04:01:16.516Z,84.3
2017-04-11T04:02:16.529Z,84.59
2017-04-11T04:03:16.549Z,84.21
2017-04-11T04:04:16.566Z,83.64
2017-04-11T04:05:31.203Z,83.73
2017-04-11T04:06:16.606Z,83.5
2017-04-11T04:07:16.631Z,83.64
2017-04-11T04:08:16.645Z,83.4
2017-04-11T04:09:16.670Z,83.78
2017-04-11T04:10:16.685Z,83.88
2017-04-11T04:11:16.702Z,83.78
2017-04-11T04:12:16.718Z,83.59
2017-04-11T04:13:16.740Z,83.69
2017-04-11T04:14:16.758Z,83.78
2017-04-11T04:15:16.781Z,83.54
2017-04-11T04:16:16.796Z,83.45
2017-04-11T04:18:16.834Z,82.88
2017-04-11T04:19:16.858Z,82.93
2017-04-11T04:20:16.871Z,82.78
2017-04-11T04:21:31.507Z,82.55
2017-04-11T04:22:16.910Z,82.55
2017-04-11T04:23:16.929Z,82.36
2017-04-11T04:24:16.948Z,82.36
2017-04-11T04:25:16.968Z,82.27
2017-04-11T04:26:16.987Z,81.79
2017-04-11T04:27:17.004Z,82.08
2017-04-11T04:28:17.024Z,82.27
2017-04-11T04:29:17.042Z,81.98
2017-04-11T04:30:17.061Z,82.08
2017-04-11T04:31:17.081Z,82.17
2017-04-11T04:32:17.098Z,82.36
2017-04-11T04:34:17.139Z,81.23
2017-04-11T04:35:17.156Z,81.04
2017-04-11T04:36:17.177Z,81.23
2017-04-11T04:37:31.813Z,81.13
2017-04-11T04:38:17.213Z,81.23
2017-04-11T04:39:17.233Z,81.13
2017-04-11T04:40:17.252Z,81.45
2017-04-11T04:41:17.271Z,81.07
2017-04-11T04:42:17.290Z,81.26
2017-04-11T04:43:17.309Z,81.17
2017-04-11T04:44:17.328Z,81.26
2017-04-11T04:45:17.348Z,81.07
2017-04-11T04:46:17.365Z,81.45
2017-04-11T04:47:17.385Z,81.17
2017-04-11T04:48:17.403Z,81.45
2017-04-11T04:49:17.422Z,80.98
2017-04-11T04:50:17.444Z,81.84
2017-04-11T04:51:17.463Z,82.12
2017-04-11T04:52:17.484Z,81.07
2017-04-11T04:53:32.116Z,80.51
2017-04-11T04:54:17.521Z,80.35
2017-04-11T04:55:17.540Z,80.74
2017-04-11T04:56:17.559Z,80.07
2017-04-11T04:57:17.615Z,80.64
2017-04-11T04:58:17.600Z,80.35
2017-04-11T04:59:17.618Z,80.45
2017-04-11T05:00:17.638Z,80.74
2017-04-11T05:01:17.663Z,80.83
2017-04-11T05:02:17.685Z,80.74
2017-04-11T05:03:17.698Z,81.49
2017-04-11T05:04:17.718Z,81.59
2017-04-11T05:05:17.743Z,81.59
2017-04-11T05:07:17.781Z,81.49
2017-04-11T05:08:32.419Z,81.12
2017-04-11T05:09:17.824Z,80.96
2017-04-11T05:10:17.844Z,81.25
2017-04-11T05:11:17.862Z,81.06
2017-04-11T05:12:17.889Z,81.12
2017-04-11T05:13:17.905Z,81.12
2017-04-11T05:14:17.926Z,81.59
2017-04-11T05:15:17.947Z,82.26
2017-04-11T05:16:17.967Z,82.73
2017-04-11T05:17:17.986Z,82.92
2017-04-11T05:18:18.007Z,83.01
2017-04-11T05:19:18.026Z,82.73
2017-04-11T05:20:18.047Z,82.54
2017-04-11T05:22:18.087Z,82.54
2017-04-11T05:23:18.108Z,82.35
2017-04-11T05:24:18.129Z,81.97
2017-04-11T05:25:18.149Z,81.87
2017-04-11T05:26:18.169Z,81.68
2017-04-11T05:27:18.189Z,82.2
2017-04-11T05:28:18.209Z,82.07
2017-04-11T05:29:18.230Z,81.92
2017-04-11T05:30:18.253Z,82.58
2017-04-11T05:31:18.272Z,81.63
2017-04-11T05:32:18.290Z,80.96
2017-04-11T05:33:18.311Z,81.44
2017-04-11T05:34:18.330Z,81.16
2017-04-11T05:35:18.350Z,81.16
2017-04-11T05:36:18.370Z,81.68
2017-04-11T05:37:18.391Z,82.1
2017-04-11T05:38:18.412Z,82.2
2017-04-11T05:39:18.430Z,81.82
2017-04-11T05:40:33.070Z,81.25
2017-04-11T05:41:18.472Z,81.25
2017-04-11T05:42:18.492Z,81.44
2017-04-11T05:43:18.514Z,81.16
2017-04-11T05:44:18.532Z,81.73
2017-04-11T05:45:18.551Z,81.44
2017-04-11T05:46:18.575Z,81.35
2017-04-11T05:47:18.589Z,81.54
2017-04-11T05:48:18.611Z,81.44
2017-04-11T05:50:18.650Z,81.25
2017-04-11T05:51:18.669Z,81.06
2017-04-11T05:52:18.690Z,81.06
2017-04-11T05:53:18.710Z,80.96
2017-04-11T05:54:18.736Z,80.87
2017-04-11T05:55:18.758Z,80.68
2017-04-11T05:56:33.386Z,81.16
2017-04-11T05:57:18.791Z,81.06
2017-04-11T05:58:18.815Z,81.44
2017-04-11T05:59:18.830Z,80.96
2017-04-11T06:00:18.949Z,80.58
2017-04-11T06:01:18.869Z,80.3
2017-04-11T06:02:18.888Z,80.96
2017-04-11T06:03:19.254Z,80.77
2017-04-11T06:04:18.931Z,80.68
2017-04-11T06:05:18.949Z,80.87
2017-04-11T06:06:18.969Z,80.87
2017-04-11T06:07:18.989Z,80.63
2017-04-11T06:08:19.009Z,80.4
2017-04-11T06:09:19.029Z,80.77
2017-04-11T06:10:19.048Z,80.24
2017-04-11T06:11:19.068Z,80.34
2017-04-11T06:12:33.704Z,80.15
2017-04-11T06:13:19.108Z,79.68
2017-04-11T06:14:19.131Z,79.3
2017-04-11T06:15:19.149Z,79.11
2017-04-11T06:16:19.170Z,79.3
2017-04-11T06:17:19.192Z,79.3
2017-04-11T06:18:19.212Z,79.68
2017-04-11T06:19:19.233Z,79.68
2017-04-11T06:20:19.249Z,79.2
2017-04-11T06:21:19.269Z,79.68
2017-04-11T06:22:19.291Z,79.49
2017-04-11T06:23:19.308Z,79.86
2017-04-11T06:24:19.334Z,79.39
2017-04-11T06:26:19.371Z,78.72
2017-04-11T06:27:19.393Z,79.01
2017-04-11T06:28:34.026Z,78.25
2017-04-11T06:29:19.431Z,77.81
2017-04-11T06:30:19.149Z,77.43
2017-04-11T06:31:19.473Z,75.28
2017-04-11T06:32:19.189Z,74.71
2017-04-11T06:33:19.210Z,74.62
2017-04-11T06:34:19.231Z,73.66
2017-04-11T06:35:19.555Z,74.71
2017-04-11T06:36:19.575Z,74.33
2017-04-11T06:37:19.598Z,74.71
2017-04-11T06:38:19.821Z,75.38
2017-04-11T06:39:19.336Z,75.15
2017-04-11T06:40:19.661Z,75.15
2017-04-11T06:41:19.380Z,75.53
2017-04-11T06:42:19.706Z,75.24
2017-04-11T06:43:34.342Z,74.96
2017-04-11T06:44:19.443Z,75.09
2017-04-11T06:45:19.766Z,75.05
2017-04-11T06:46:19.789Z,75.72
2017-04-11T06:47:19.811Z,74.58
2017-04-11T06:48:19.835Z,74.43
2017-04-11T06:49:19.852Z,74.43
2017-04-11T06:50:19.872Z,74.43
2017-04-11T06:51:19.895Z,74.58
2017-04-11T06:52:19.916Z,75.72
2017-04-11T06:53:19.633Z,76.39
2017-04-11T06:54:19.957Z,77.39
2017-04-11T06:55:19.979Z,77.3
2017-04-11T06:57:20.019Z,77.24
2017-04-11T06:58:20.041Z,76.86
2017-04-11T06:59:20.064Z,76.1
2017-04-11T07:00:20.086Z,75.62
2017-04-11T07:01:20.106Z,74.43
2017-04-11T07:02:19.821Z,74.29
2017-04-11T07:03:20.146Z,74.43
2017-04-11T07:04:20.169Z,74.62
2017-04-11T07:05:20.188Z,74.29
2017-04-11T07:06:20.213Z,75.24
2017-04-11T07:07:20.230Z,75.05
2017-04-11T07:08:20.258Z,75.24
2017-04-11T07:09:20.274Z,75.91
2017-04-11T07:10:19.996Z,75.81
2017-04-11T07:11:20.316Z,76.1
2017-04-11T07:12:20.342Z,75.53
2017-04-11T07:13:20.357Z,75.43
2017-04-11T07:14:20.378Z,74.96
2017-04-11T07:15:35.016Z,74.14
2017-04-11T07:16:20.419Z,73.95
2017-04-11T07:17:20.442Z,74.14
2017-04-11T07:18:20.463Z,73.66
2017-04-11T07:19:20.487Z,74.24
2017-04-11T07:20:20.504Z,73.85
2017-04-11T07:21:20.223Z,74.14
2017-04-11T07:22:20.244Z,73.57
2017-04-11T07:23:20.264Z,73.41
2017-04-11T07:24:20.590Z,73.13
2017-04-11T07:25:20.347Z,73.03
2017-04-11T07:26:20.636Z,74.14
2017-04-11T07:27:20.354Z,73.76
2017-04-11T07:28:20.372Z,74.43
2017-04-11T07:29:20.392Z,74.52
2017-04-11T07:30:20.716Z,74.71
2017-04-11T07:31:35.355Z,74.52
2017-04-11T07:32:20.456Z,75.28
2017-04-11T07:33:20.476Z,75.09
2017-04-11T07:34:20.805Z,75.53
2017-04-11T07:35:20.823Z,75.28
2017-04-11T07:36:20.842Z,75.57
2017-04-11T07:37:20.865Z,74.62
2017-04-11T07:38:20.887Z,75.28
2017-04-11T07:39:20.905Z,75.28
2017-04-11T07:40:20.928Z,77.37
2017-04-11T07:41:20.952Z,78.33
2017-04-11T07:45:21.032Z,82.48
2017-04-11T07:46:21.055Z,82.57
2017-04-11T07:47:35.690Z,84.81
2017-04-11T07:48:20.792Z,85.1
2017-04-11T07:49:20.814Z,85.66
2017-04-11T07:50:21.138Z,86.24
2017-04-11T07:51:21.158Z,86.8
2017-04-11T07:52:21.178Z,87.19
2017-04-11T07:53:21.199Z,88.33
2017-04-11T07:54:21.220Z,88.71
2017-04-11T07:55:21.242Z,88.23
2017-04-11T07:56:21.265Z,88.38
2017-04-11T07:57:21.281Z,89.23
2017-04-11T07:58:21.307Z,88.38
2017-04-11T07:59:21.323Z,89.61
2017-04-11T08:00:21.394Z,89.14
2017-04-11T08:01:21.365Z,90.19
2017-04-11T08:02:21.383Z,90.19
2017-04-11T08:03:36.021Z,90.66
2017-04-11T08:04:21.425Z,90.09
2017-04-11T08:05:21.446Z,90.19
2017-04-11T08:06:21.465Z,91.61
2017-04-11T08:07:21.488Z,93.37
2017-04-11T08:08:21.510Z,91.37
2017-04-11T08:09:21.530Z,90.94
2017-04-11T08:10:21.547Z,90.56
2017-04-11T08:11:21.567Z,90.28
2017-04-11T08:12:21.587Z,90.37
2017-04-11T08:13:21.607Z,91.61
2017-04-11T08:14:21.629Z,91.99
2017-04-11T08:15:21.650Z,90.56
2017-04-11T08:16:21.672Z,89.9
2017-04-11T08:17:21.690Z,90
2017-04-11T08:18:36.327Z,89.52
2017-04-11T08:19:21.732Z,89.9
2017-04-11T08:20:21.784Z,89.61
2017-04-11T08:21:21.786Z,88.71
2017-04-11T08:22:21.797Z,88.23
2017-04-11T08:23:21.813Z,88.33
2017-04-11T08:24:21.834Z,88.28
2017-04-11T08:25:21.854Z,88.23
2017-04-11T08:26:21.875Z,88.13
2017-04-11T08:27:21.895Z,87.38
2017-04-11T08:28:21.915Z,86.33
2017-04-11T08:29:21.632Z,86.86
2017-04-11T08:30:21.963Z,86.67
2017-04-11T08:32:21.999Z,86.29
2017-04-11T08:33:22.034Z,86.57
2017-04-11T08:34:22.040Z,86.47
2017-04-11T08:35:22.058Z,84.81
2017-04-11T08:36:22.078Z,84.48
2017-04-11T08:37:22.100Z,84.86
2017-04-11T08:38:22.121Z,85.24
2017-04-11T08:39:22.300Z,85.24
2017-04-11T08:40:22.160Z,85.34
2017-04-11T08:41:22.181Z,85.24
2017-04-11T08:42:22.200Z,84.29
2017-04-11T08:43:22.220Z,84.01
2017-04-11T08:44:22.585Z,83.62
2017-04-11T08:45:22.262Z,83.29
2017-04-11T08:46:22.281Z,83.76
2017-04-11T08:47:22.309Z,84.72
2017-04-11T08:48:22.325Z,85.19
2017-04-11T08:49:22.345Z,82.67
2017-04-11T08:50:36.980Z,83.29
2017-04-11T08:51:22.385Z,82.95
2017-04-11T08:52:22.409Z,81.71
2017-04-11T08:53:22.429Z,82.38
2017-04-11T08:54:22.446Z,82.57
2017-04-11T08:55:22.467Z,80.33
2017-04-11T08:56:22.490Z,80.61
2017-04-11T08:57:22.510Z,78.08
2017-04-11T08:58:22.228Z,76.21
2017-04-11T09:00:22.573Z,73.91
2017-04-11T09:01:22.596Z,73.62
2017-04-11T09:02:22.621Z,72
2017-04-11T09:05:22.690Z,70.82
2017-04-11T09:06:37.329Z,72.63
2017-04-11T09:07:22.738Z,71.77
2017-04-11T09:08:22.759Z,70.86
2017-04-11T09:09:22.783Z,70.86
2017-04-11T09:10:22.806Z,70.19
2017-04-11T09:11:22.830Z,69.81
2017-04-11T09:12:22.853Z,70
2017-04-11T09:13:22.880Z,67.99
2017-04-11T09:14:22.903Z,69.14
2017-04-11T09:15:22.925Z,68.57
2017-04-11T09:16:22.949Z,70.53
2017-04-11T09:17:22.978Z,71.93
2017-04-11T09:18:23.001Z,71.73
2017-04-11T09:19:23.022Z,71.73
2017-04-11T09:20:23.045Z,72.78
2017-04-11T09:21:23.068Z,72.69
2017-04-11T09:22:37.708Z,72.21
2017-04-11T09:23:23.114Z,71.96
2017-04-11T09:24:23.140Z,71.83
2017-04-11T09:25:23.166Z,71.2
2017-04-11T09:26:23.184Z,70.82
2017-04-11T09:27:23.215Z,70.34
2017-04-11T09:28:23.233Z,70.63
2017-04-11T09:29:23.257Z,70.53
2017-04-11T09:30:23.283Z,70.34
2017-04-11T09:31:23.303Z,70.06
2017-04-11T09:32:23.331Z,69.2
2017-04-11T09:33:23.351Z,69.26
2017-04-11T09:34:23.376Z,68.88
2017-04-11T09:35:23.396Z,67.93
2017-04-11T09:36:23.421Z,66.15
2017-04-11T09:37:23.445Z,67.07
2017-04-11T09:38:38.087Z,67.41
2017-04-11T09:39:23.493Z,68.46
2017-04-11T09:40:23.512Z,67.8
2017-04-11T09:41:23.592Z,68.65
2017-04-11T09:42:23.564Z,69.51
2017-04-11T09:43:23.587Z,69.79
2017-04-11T09:44:23.605Z,70.94
2017-04-11T09:45:23.627Z,71.8
2017-04-11T09:46:23.348Z,71.32
2017-04-11T09:47:23.674Z,73.32
2017-04-11T09:51:23.766Z,79.38
2017-04-11T09:52:23.787Z,80.95
2017-04-11T09:53:38.426Z,83.9
2017-04-11T09:54:23.835Z,84.52
2017-04-11T09:55:23.851Z,86.43
2017-04-11T09:56:23.879Z,88.57
2017-04-11T09:57:23.912Z,89.52
2017-04-11T09:59:23.942Z,91.56
2017-04-11T10:00:23.962Z,91.99
2017-04-11T10:01:23.984Z,92.42
2017-04-11T10:02:24.005Z,93.13
2017-04-11T10:03:24.026Z,92.27
2017-04-11T10:04:24.050Z,92.37
2017-04-11T10:06:23.789Z,92.7
2017-04-11T10:07:23.813Z,91.7
2017-04-11T10:08:23.832Z,90.66
2017-04-11T10:09:24.158Z,89.08
2017-04-11T10:10:24.177Z,88.18
2017-04-11T10:11:24.200Z,87.32
2017-04-11T10:12:24.221Z,88.27
2017-04-11T10:13:24.243Z,89.55
2017-04-11T10:14:24.268Z,88.17
2017-04-11T10:15:23.986Z,85.12
2017-04-11T10:16:24.009Z,86.51
2017-04-11T10:17:24.335Z,86.6
2017-04-11T10:18:24.358Z,89.22
2017-04-11T10:19:24.077Z,85.41
2017-04-11T10:20:24.106Z,86.03
2017-04-11T10:22:24.149Z,85.51
2017-04-11T10:23:24.478Z,85.03
2017-04-11T10:24:24.193Z,85.89
2017-04-11T10:25:39.138Z,85.41
2017-04-11T10:26:24.545Z,86.36
2017-04-11T10:27:24.567Z,85.7
2017-04-11T10:28:24.592Z,84.94
2017-04-11T10:29:24.617Z,83.89
2017-04-11T10:30:24.334Z,84.94
2017-04-11T10:31:24.358Z,84.17
2017-04-11T10:32:24.684Z,84.36
2017-04-11T10:33:24.709Z,84.75
2017-04-11T10:35:24.751Z,83.45
2017-04-11T10:36:24.776Z,81.26
2017-04-11T10:37:25.351Z,79.64
2017-04-11T10:38:24.825Z,80.44
2017-04-11T10:39:24.543Z,79.59
2017-04-11T10:40:24.869Z,79.68
2017-04-11T10:41:39.509Z,78.06
2017-04-11T10:42:24.917Z,76.06
2017-04-11T10:43:24.937Z,74.5
2017-04-11T10:44:24.963Z,76.27
2017-04-11T10:45:24.986Z,77.22
2017-04-11T10:46:25.007Z,76.84
2017-04-11T10:47:25.031Z,77.51
2017-04-11T10:48:25.404Z,75.13
2017-04-11T10:49:25.079Z,76.46
2017-04-11T10:50:25.101Z,77.61
2017-04-11T10:52:25.145Z,76.65
2017-04-11T10:53:25.168Z,77.07
2017-04-11T10:55:25.213Z,76.69
2017-04-11T10:56:25.238Z,74.21
2017-04-11T10:57:39.876Z,73.65
2017-04-11T10:58:25.282Z,73.32
2017-04-11T10:59:25.310Z,71.98
2017-04-11T11:00:25.327Z,71.98
2017-04-11T11:01:25.350Z,72.17
2017-04-11T11:02:25.373Z,71.32
2017-04-11T11:03:25.396Z,71.89
2017-04-11T11:04:25.417Z,72.52
2017-04-11T11:05:25.440Z,73.22
2017-04-11T11:06:25.159Z,73.32
2017-04-11T11:07:25.485Z,73.13
2017-04-11T11:08:25.518Z,73.51
2017-04-11T11:09:25.544Z,74.18
2017-04-11T11:10:25.553Z,73.99
2017-04-11T11:11:25.574Z,72.02
2017-04-11T11:12:25.595Z,72.88
2017-04-11T11:13:40.236Z,70.69
2017-04-11T11:14:25.642Z,69.96
2017-04-11T11:15:25.682Z,69.48
2017-04-11T11:16:25.692Z,68.21
2017-04-11T11:17:25.709Z,69.26
2017-04-11T11:18:25.733Z,69.01
2017-04-11T11:19:25.756Z,68.63
2017-04-11T11:20:25.474Z,69.07
2017-04-11T11:21:25.799Z,70.21
2017-04-11T11:22:25.822Z,69.54
2017-04-11T11:23:25.843Z,70.88
2017-04-11T11:24:25.867Z,71.73
2017-04-11T11:26:25.918Z,69.2
2017-04-11T11:27:25.935Z,68.53
2017-04-11T11:28:40.575Z,68.34
2017-04-11T11:29:25.982Z,67.9
2017-04-11T11:30:25.699Z,68.18
2017-04-11T11:31:26.026Z,68.18
2017-04-11T11:32:26.049Z,68.7
2017-04-11T11:33:26.071Z,67.17
2017-04-11T11:34:26.093Z,66.78
2017-04-11T11:35:26.121Z,65.83
2017-04-11T11:36:25.839Z,65.74
2017-04-11T11:37:26.163Z,66.41
2017-04-11T11:38:26.185Z,67.36
2017-04-11T11:40:26.232Z,65.99
2017-04-11T11:41:26.256Z,67.8
2017-04-11T11:42:25.975Z,68.95
2017-04-11T11:43:26.308Z,69.04
2017-04-11T11:44:26.324Z,69.52
2017-04-11T11:45:26.346Z,69.71
2017-04-11T11:46:26.370Z,70.09
2017-04-11T11:47:26.394Z,69.33
2017-04-11T11:48:26.417Z,70.38
2017-04-11T11:49:26.135Z,70.09
2017-04-11T11:50:26.158Z,70.47
2017-04-11T11:51:26.182Z,69.62
2017-04-11T11:52:26.515Z,71.01
2017-04-11T11:53:26.531Z,71.58
2017-04-11T11:54:26.555Z,71.77
2017-04-11T11:55:26.577Z,71.48
2017-04-11T11:57:26.624Z,73.36
2017-04-11T11:58:26.646Z,73.93
2017-04-11T11:59:26.364Z,74.02
2017-04-11T12:00:41.309Z,74.6
2017-04-11T12:01:26.414Z,74.6
2017-04-11T12:02:26.736Z,74.69
2017-04-11T12:03:26.760Z,74.6
2017-04-11T12:04:26.782Z,75.26
2017-04-11T12:05:26.808Z,74.88
2017-04-11T12:06:26.834Z,75.07
2017-04-11T12:07:26.851Z,75.2
2017-04-11T12:08:26.874Z,74.92
2017-04-11T12:09:26.896Z,72.67
2017-04-11T12:10:26.918Z,72.67
2017-04-11T12:15:27.031Z,71.68
2017-04-11T12:16:41.671Z,73.01
2017-04-11T12:17:27.076Z,73.01
2017-04-11T12:18:27.101Z,72
2017-04-11T12:19:27.124Z,72.19
2017-04-11T12:20:27.150Z,71.81
2017-04-11T12:21:26.864Z,71.62
2017-04-11T12:22:27.190Z,71.23
2017-04-11T12:23:27.211Z,71.33
2017-04-11T12:24:27.239Z,71.62
2017-04-11T12:25:27.259Z,71.81
2017-04-11T12:29:27.350Z,71.96
2017-04-11T12:30:27.373Z,73.21
2017-04-11T12:31:27.396Z,73.01
2017-04-11T12:32:42.034Z,73.68
2017-04-11T12:33:27.136Z,73.39
2017-04-11T12:34:27.469Z,73.87
2017-04-11T12:35:27.182Z,74.06
2017-04-11T12:36:27.508Z,74.25
2017-04-11T12:37:27.530Z,74.06
2017-04-11T12:38:27.554Z,74.29
2017-04-11T12:39:27.578Z,73.91
2017-04-11T12:40:27.598Z,73.62
2017-04-11T12:41:27.630Z,73.14
2017-04-11T12:42:27.646Z,72.86
2017-04-11T12:43:27.666Z,72.51
2017-04-11T12:44:27.696Z,72.42
2017-04-11T12:45:27.713Z,71.69
2017-04-11T12:46:27.736Z,70.64
2017-04-11T12:47:27.758Z,69.87
2017-04-11T12:48:42.397Z,70.64
2017-04-11T12:49:27.852Z,69.05
2017-04-11T12:50:27.830Z,68.86
2017-04-11T12:51:27.850Z,68
2017-04-11T12:52:27.875Z,68.29
2017-04-11T12:53:27.895Z,66.56
2017-04-11T12:54:27.918Z,66.47
2017-04-11T12:55:27.945Z,66.19
2017-04-11T12:56:27.965Z,65.9
2017-04-11T12:57:27.988Z,64.47
2017-04-11T12:58:28.011Z,64.18
2017-04-11T12:59:28.035Z,64.18
2017-04-11T13:00:28.061Z,64.18
2017-04-11T13:01:28.083Z,63.89
2017-04-11T13:02:28.105Z,64.47
2017-04-11T13:03:42.745Z,64.37
2017-04-11T13:04:28.159Z,64.25
2017-04-11T13:05:28.174Z,65.01
2017-04-11T13:06:28.200Z,65.2
2017-04-11T13:07:28.222Z,66.06
2017-04-11T13:08:28.246Z,65.3
2017-04-11T13:09:28.270Z,65.36
2017-04-11T13:10:28.290Z,64.34
2017-04-11T13:11:28.317Z,64.15
2017-04-11T13:12:28.336Z,63
2017-04-11T13:13:28.360Z,62.05
2017-04-11T13:14:28.383Z,61.69
2017-04-11T13:15:28.406Z,60.84
2017-04-11T13:17:28.149Z,60.55
2017-04-11T13:18:28.514Z,60.46
2017-04-11T13:19:28.500Z,60.46
2017-04-11T13:20:28.219Z,59.78
2017-04-11T13:21:28.547Z,59.98
2017-04-11T13:22:28.571Z,59.5
2017-04-11T13:23:28.594Z,60.27
2017-04-11T13:24:28.617Z,60.36
2017-04-11T13:25:28.639Z,59.98
2017-04-11T13:26:28.666Z,59.98
2017-04-11T13:27:28.686Z,59.59
2017-04-11T13:28:28.712Z,60.46
2017-04-11T13:29:28.740Z,60.55
2017-04-11T13:30:28.756Z,59.41
2017-04-11T13:31:28.781Z,59.78
2017-04-11T13:32:28.803Z,60.17
2017-04-11T13:33:28.828Z,59.59
2017-04-11T13:34:28.847Z,59.22
2017-04-11T13:35:43.489Z,60.17
2017-04-11T13:36:28.942Z,59.98
2017-04-11T13:37:28.923Z,59.88
2017-04-11T13:38:28.941Z,59.78
2017-04-11T13:39:28.965Z,60.39
2017-04-11T13:40:28.989Z,60.58
2017-04-11T13:41:29.013Z,59.63
2017-04-11T13:43:29.058Z,59.78
2017-04-11T13:44:29.082Z,59.53
2017-04-11T13:45:29.104Z,60.17